Time;durP1;ratioP1;P1;durP2;ratioP2;P2;SDS_P1;SDS_P2;PMS_P1;PMS_P2;Temp;Humidity;BMP_temperature;BMP_pressure;BME280_temperature;BME280_humidity;BME280_pressure;Samples;Min_cycle;Max_cycle;Signal;HPM_P1;HPM_P2
2022/01/07 00:02:06;;;;;;;9.93;3.70;;;;;;;;;;5092352;28;20028;-66
2022/01/07 00:04:35;;;;;;;7.43;3.78;;;;;;;;;;5091119;28;20114;-65
2022/01/07 00:07:00;;;;;;;10.45;4.53;;;;;;;;;;5088217;28;20032;-63
2022/01/07 00:09:26;;;;;;;7.97;3.58;;;;;;;;;;5086371;28;20158;-65
2022/01/07 00:11:51;;;;;;;10.65;3.67;;;;;;;;;;5083347;28;20470;-65
2022/01/07 00:14:17;;;;;;;10.93;4.00;;;;;;;;;;5086376;28;20033;-65
2022/01/07 00:16:42;;;;;;;7.97;4.40;;;;;;;;;;5080795;28;20031;-65
2022/01/07 00:19:07;;;;;;;7.82;3.50;;;;;;;;;;5091398;28;20115;-65
2022/01/07 00:21:33;;;;;;;11.50;5.00;;;;;;;;;;5086897;28;20488;-66
2022/01/07 00:23:58;;;;;;;9.07;4.13;;;;;;;;;;5081391;28;20032;-64
2022/01/07 00:26:24;;;;;;;8.90;4.68;;;;;;;;;;5089677;28;20029;-62
2022/01/07 00:28:49;;;;;;;7.75;3.95;;;;;;;;;;5089667;28;20479;-65
2022/01/07 00:31:15;;;;;;;9.57;4.18;;;;;;;;;;5080974;28;20032;-65
2022/01/07 00:33:40;;;;;;;12.07;4.90;;;;;;;;;;5085073;28;20051;-65
2022/01/07 00:36:06;;;;;;;11.50;5.18;;;;;;;;;;5079081;28;20339;-66
2022/01/07 00:38:33;;;;;;;13.95;5.53;;;;;;;;;;5085464;28;20439;-65
2022/01/07 00:40:58;;;;;;;10.23;5.22;;;;;;;;;;5094257;28;20115;-65
2022/01/07 00:43:24;;;;;;;14.27;5.10;;;;;;;;;;5089922;28;20526;-64
2022/01/07 00:45:49;;;;;;;14.90;4.80;;;;;;;;;;5090337;28;20486;-65
2022/01/07 00:48:15;;;;;;;12.90;4.57;;;;;;;;;;5086613;28;20059;-65
2022/01/07 00:50:41;;;;;;;15.73;5.20;;;;;;;;;;5090681;28;20064;-64
2022/01/07 00:53:07;;;;;;;11.48;4.07;;;;;;;;;;5083134;28;20028;-66
2022/01/07 00:55:33;;;;;;;14.98;4.80;;;;;;;;;;5087996;28;20035;-63
2022/01/07 00:57:58;;;;;;;12.48;5.57;;;;;;;;;;5080906;28;20367;-64
2022/01/07 01:00:26;;;;;;;16.95;5.32;;;;;;;;;;5083069;28;20142;-65
2022/01/07 01:02:53;;;;;;;16.55;5.35;;;;;;;;;;5074461;28;20033;-65
2022/01/07 01:05:19;;;;;;;15.50;5.30;;;;;;;;;;5075601;28;20394;-65
2022/01/07 01:07:45;;;;;;;17.20;6.68;;;;;;;;;;5093227;28;20039;-64
2022/01/07 01:10:13;;;;;;;14.82;6.57;;;;;;;;;;5067329;28;20463;-65
2022/01/07 01:12:40;;;;;;;11.80;5.43;;;;;;;;;;5093998;28;20035;-65
2022/01/07 01:15:10;;;;;;;18.27;6.40;;;;;;;;;;5074075;28;20036;-64
2022/01/07 01:17:36;;;;;;;15.68;6.25;;;;;;;;;;5088905;28;20020;-65
2022/01/07 01:20:05;;;;;;;18.25;6.85;;;;;;;;;;5110093;28;20057;-65
2022/01/07 01:22:31;;;;;;;21.53;7.60;;;;;;;;;;5110123;28;20026;-66
2022/01/07 01:24:56;;;;;;;18.08;7.25;;;;;;;;;;5101147;28;20271;-65
2022/01/07 01:27:22;;;;;;;18.55;7.13;;;;;;;;;;5097949;28;20123;-66
2022/01/07 01:29:47;;;;;;;21.52;7.70;;;;;;;;;;5093726;28;20067;-64
2022/01/07 01:32:13;;;;;;;23.75;8.93;;;;;;;;;;5094246;28;20024;-65
2022/01/07 01:34:38;;;;;;;21.15;6.45;;;;;;;;;;5093683;28;20020;-65
2022/01/07 01:37:04;;;;;;;17.55;6.05;;;;;;;;;;5103534;28;20024;-65
2022/01/07 01:39:29;;;;;;;9.30;4.43;;;;;;;;;;5114604;28;20479;-65
2022/01/07 01:41:55;;;;;;;18.63;6.47;;;;;;;;;;5113729;28;20488;-64
2022/01/07 01:44:20;;;;;;;17.65;6.68;;;;;;;;;;5077919;28;20041;-65
2022/01/07 01:46:45;;;;;;;16.83;6.03;;;;;;;;;;5086616;28;20030;-65
2022/01/07 01:49:11;;;;;;;15.07;7.35;;;;;;;;;;5106004;28;20038;-64
2022/01/07 01:51:36;;;;;;;18.13;7.03;;;;;;;;;;5093951;28;20024;-65
2022/01/07 01:54:03;;;;;;;15.75;7.03;;;;;;;;;;5058825;28;20028;-65
2022/01/07 01:56:29;;;;;;;21.88;6.95;;;;;;;;;;5093256;28;20043;-65
2022/01/07 01:58:55;;;;;;;27.95;7.07;;;;;;;;;;5093645;28;20455;-65
2022/01/07 02:01:20;;;;;;;15.93;6.68;;;;;;;;;;5105110;28;20027;-65
2022/01/07 02:03:46;;;;;;;16.20;6.18;;;;;;;;;;5114072;28;20027;-65
2022/01/07 02:06:11;;;;;;;15.63;7.18;;;;;;;;;;5112217;28;20454;-64
2022/01/07 02:08:37;;;;;;;15.95;6.75;;;;;;;;;;5093246;28;20475;-65
2022/01/07 02:11:05;;;;;;;19.77;7.63;;;;;;;;;;5093541;28;20103;-65
2022/01/07 02:13:31;;;;;;;16.70;6.95;;;;;;;;;;5093268;28;20398;-64
2022/01/07 02:15:56;;;;;;;14.80;7.20;;;;;;;;;;5093551;28;20020;-63
2022/01/07 02:18:22;;;;;;;15.48;6.30;;;;;;;;;;5098870;28;20028;-64
2022/01/07 02:20:48;;;;;;;12.70;5.57;;;;;;;;;;5093564;28;20035;-65
2022/01/07 02:23:15;;;;;;;21.20;7.18;;;;;;;;;;5093524;28;20061;-66
2022/01/07 02:25:41;;;;;;;20.00;7.22;;;;;;;;;;5090881;28;20103;-65
2022/01/07 02:28:07;;;;;;;18.38;7.28;;;;;;;;;;5093129;28;20501;-66
2022/01/07 02:30:32;;;;;;;15.10;7.10;;;;;;;;;;5093232;28;20504;-65
2022/01/07 02:32:58;;;;;;;17.50;7.07;;;;;;;;;;5093178;28;20112;-64
2022/01/07 02:35:30;;;;;;;16.65;7.28;;;;;;;;;;5074913;28;20478;-65
2022/01/07 02:37:55;;;;;;;17.98;7.57;;;;;;;;;;5093071;28;20024;-66
2022/01/07 02:40:22;;;;;;;19.55;7.93;;;;;;;;;;5092696;28;20522;-65
2022/01/07 02:42:48;;;;;;;19.20;8.07;;;;;;;;;;5092946;28;20020;-64
2022/01/07 02:45:14;;;;;;;21.17;7.90;;;;;;;;;;5074653;28;20035;-65
2022/01/07 02:47:54;;;;;;;14.80;6.68;;;;;;;;;;5093072;28;20024;-64
2022/01/07 02:50:33;;;;;;;15.20;6.25;;;;;;;;;;5112429;28;20077;-66
2022/01/07 02:52:59;;;;;;;17.83;7.50;;;;;;;;;;5105127;28;20103;-65
2022/01/07 02:55:26;;;;;;;21.55;7.50;;;;;;;;;;5092689;28;20024;-65
2022/01/07 02:57:51;;;;;;;16.27;7.15;;;;;;;;;;5092457;28;20024;-65
2022/01/07 03:00:18;;;;;;;27.67;8.43;;;;;;;;;;5092956;28;20074;-63
2022/01/07 03:02:48;;;;;;;17.85;7.10;;;;;;;;;;5092598;28;20052;-65
2022/01/07 03:05:14;;;;;;;;;;;;;;;;;;5093066;28;20048;-65
2022/01/07 03:07:40;;;;;;;18.85;6.43;;;;;;;;;;5091961;28;19963;-65
2022/01/07 03:10:07;;;;;;;13.73;6.82;;;;;;;;;;5091786;28;20024;-64
2022/01/07 03:12:33;;;;;;;15.85;6.95;;;;;;;;;;5094800;28;20028;-63
2022/01/07 03:14:58;;;;;;;14.48;6.57;;;;;;;;;;5096589;28;20050;-64
2022/01/07 03:17:24;;;;;;;20.85;7.43;;;;;;;;;;5096744;28;20024;-66
2022/01/07 03:19:49;;;;;;;17.45;6.60;;;;;;;;;;5092230;28;20029;-63
2022/01/07 03:22:14;;;;;;;16.23;6.93;;;;;;;;;;5089111;28;20085;-65
2022/01/07 03:24:40;;;;;;;20.30;6.68;;;;;;;;;;5096492;28;20097;-66
2022/01/07 03:27:06;;;;;;;16.50;7.63;;;;;;;;;;5096226;28;20023;-65
2022/01/07 03:29:32;;;;;;;19.58;7.80;;;;;;;;;;5096350;28;20024;-65
2022/01/07 03:31:57;;;;;;;19.30;6.82;;;;;;;;;;5096411;28;20020;-64
2022/01/07 03:34:23;;;;;;;19.15;7.32;;;;;;;;;;5101046;28;20024;-64
2022/01/07 03:36:48;;;;;;;19.17;7.20;;;;;;;;;;5112257;28;20122;-63
2022/01/07 03:39:14;;;;;;;17.50;7.47;;;;;;;;;;5078182;28;20028;-66
2022/01/07 03:41:39;;;;;;;11.55;5.38;;;;;;;;;;5096098;28;20387;-65
2022/01/07 03:44:05;;;;;;;21.33;6.57;;;;;;;;;;5096064;28;20035;-65
2022/01/07 03:46:30;;;;;;;21.88;7.28;;;;;;;;;;5096227;28;20053;-65
2022/01/07 03:48:56;;;;;;;17.52;7.80;;;;;;;;;;5096194;28;20089;-65
2022/01/07 03:51:21;;;;;;;16.58;7.28;;;;;;;;;;5095973;28;20045;-66
2022/01/07 03:53:47;;;;;;;18.08;7.43;;;;;;;;;;5096052;28;20028;-65
2022/01/07 03:56:17;;;;;;;20.98;7.75;;;;;;;;;;5095825;28;20382;-65
2022/01/07 03:58:43;;;;;;;20.92;7.00;;;;;;;;;;5096042;28;20028;-65
2022/01/07 04:01:09;;;;;;;18.67;7.25;;;;;;;;;;5103217;28;20354;-64
2022/01/07 04:03:34;;;;;;;16.85;6.85;;;;;;;;;;5116361;28;20035;-64
2022/01/07 04:06:00;;;;;;;24.52;7.55;;;;;;;;;;5116345;28;20119;-65
2022/01/07 04:08:25;;;;;;;15.93;7.45;;;;;;;;;;5099698;28;20072;-65
2022/01/07 04:10:51;;;;;;;20.35;7.00;;;;;;;;;;5095670;28;20020;-66
2022/01/07 04:13:16;;;;;;;19.30;7.32;;;;;;;;;;5095889;28;20119;-65
2022/01/07 04:15:41;;;;;;;18.65;7.03;;;;;;;;;;5095977;28;20031;-63
2022/01/07 04:18:07;;;;;;;12.05;5.20;;;;;;;;;;5095524;28;20024;-66
2022/01/07 04:20:34;;;;;;;17.90;6.95;;;;;;;;;;5095496;28;20063;-65
2022/01/07 04:23:00;;;;;;;21.52;6.40;;;;;;;;;;5093885;28;20020;-65
2022/01/07 04:25:26;;;;;;;17.58;7.03;;;;;;;;;;5095594;28;20028;-65
2022/01/07 04:27:59;;;;;;;24.35;6.55;;;;;;;;;;5095157;28;20088;-66
2022/01/07 04:30:29;;;;;;;17.38;6.53;;;;;;;;;;5077288;28;20028;-65
2022/01/07 04:32:55;;;;;;;13.63;6.57;;;;;;;;;;5095333;28;20367;-65
2022/01/07 04:35:22;;;;;;;14.57;6.55;;;;;;;;;;5094980;28;20044;-65
2022/01/07 04:37:48;;;;;;;15.65;6.88;;;;;;;;;;5094873;28;20054;-64
2022/01/07 04:40:15;;;;;;;17.52;7.35;;;;;;;;;;5095330;28;20020;-65
2022/01/07 04:42:41;;;;;;;18.30;6.28;;;;;;;;;;5095258;28;20031;-63
2022/01/07 04:45:08;;;;;;;16.55;6.60;;;;;;;;;;5095088;28;20471;-65
2022/01/07 04:47:36;;;;;;;16.60;7.13;;;;;;;;;;5095114;28;20028;-65
2022/01/07 04:50:08;;;;;;;15.85;7.45;;;;;;;;;;5095127;28;20036;-65
2022/01/07 04:52:33;;;;;;;16.00;6.53;;;;;;;;;;5094615;28;20089;-64
2022/01/07 04:54:59;;;;;;;15.50;5.60;;;;;;;;;;5095142;28;20031;-65
2022/01/07 04:57:24;;;;;;;18.95;6.40;;;;;;;;;;5095109;28;20137;-65
2022/01/07 04:59:50;;;;;;;9.75;4.30;;;;;;;;;;5094869;28;20106;-65
2022/01/07 05:02:19;;;;;;;15.27;6.40;;;;;;;;;;5095092;28;20393;-65
2022/01/07 05:04:44;;;;;;;21.65;8.50;;;;;;;;;;5095013;28;20016;-65
2022/01/07 05:07:10;;;;;;;11.13;5.13;;;;;;;;;;5094327;28;20090;-64
2022/01/07 05:09:35;;;;;;;15.02;6.55;;;;;;;;;;5094855;28;20462;-65
2022/01/07 05:12:01;;;;;;;15.80;6.78;;;;;;;;;;5094809;28;20031;-65
2022/01/07 05:14:26;;;;;;;11.43;4.65;;;;;;;;;;5094662;28;20383;-66
2022/01/07 05:16:51;;;;;;;25.55;8.40;;;;;;;;;;5094371;28;20519;-65
2022/01/07 05:19:17;;;;;;;13.80;5.80;;;;;;;;;;5094374;28;20088;-62
2022/01/07 05:21:42;;;;;;;16.10;7.05;;;;;;;;;;5076157;28;20078;-64
2022/01/07 05:24:08;;;;;;;14.30;5.70;;;;;;;;;;5094314;28;20047;-65
2022/01/07 05:26:33;;;;;;;17.92;5.55;;;;;;;;;;5094218;28;20024;-65
2022/01/07 05:28:59;;;;;;;22.25;7.10;;;;;;;;;;5075965;28;20386;-66
2022/01/07 05:31:25;;;;;;;13.25;5.47;;;;;;;;;;5091792;28;20021;-66
2022/01/07 05:33:54;;;;;;;21.33;6.07;;;;;;;;;;5084649;28;20107;-64
2022/01/07 05:36:20;;;;;;;17.27;6.43;;;;;;;;;;5089601;28;20051;-64
2022/01/07 05:38:47;;;;;;;12.75;5.90;;;;;;;;;;5093972;28;20082;-64
2022/01/07 05:41:13;;;;;;;17.08;5.03;;;;;;;;;;5094177;28;20037;-64
2022/01/07 05:43:39;;;;;;;18.30;6.63;;;;;;;;;;5093997;28;20054;-65
2022/01/07 05:46:05;;;;;;;10.95;5.43;;;;;;;;;;5093680;28;20056;-63
2022/01/07 05:48:32;;;;;;;15.65;6.35;;;;;;;;;;5093892;28;20043;-64
2022/01/07 05:50:57;;;;;;;13.65;5.72;;;;;;;;;;5093754;28;20027;-64
2022/01/07 05:53:23;;;;;;;18.85;6.43;;;;;;;;;;5103879;28;20397;-66
2022/01/07 05:55:48;;;;;;;18.83;5.97;;;;;;;;;;5114401;28;20020;-65
2022/01/07 05:58:14;;;;;;;15.02;5.30;;;;;;;;;;5098265;28;20435;-64
2022/01/07 06:00:39;;;;;;;10.43;4.88;;;;;;;;;;5093705;28;20023;-65
2022/01/07 06:03:05;;;;;;;15.05;5.60;;;;;;;;;;5093797;28;20324;-66
2022/01/07 06:05:30;;;;;;;16.48;6.32;;;;;;;;;;5093377;28;20020;-64
2022/01/07 06:07:56;;;;;;;16.85;5.65;;;;;;;;;;5093460;28;20024;-65
2022/01/07 06:10:21;;;;;;;14.02;5.35;;;;;;;;;;5093490;28;20031;-61
2022/01/07 06:12:46;;;;;;;15.85;4.82;;;;;;;;;;5093346;28;20374;-65
2022/01/07 06:15:12;;;;;;;10.88;4.05;;;;;;;;;;5093359;28;20024;-64
2022/01/07 06:17:38;;;;;;;15.88;4.38;;;;;;;;;;5093119;28;20077;-65
2022/01/07 06:20:05;;;;;;;16.33;5.47;;;;;;;;;;5093025;28;20101;-65
2022/01/07 06:22:30;;;;;;;12.75;5.72;;;;;;;;;;5113107;28;20040;-65
2022/01/07 06:24:56;;;;;;;17.17;5.20;;;;;;;;;;5105636;28;20016;-64
2022/01/07 06:27:21;;;;;;;12.48;4.15;;;;;;;;;;5093060;28;20032;-65
2022/01/07 06:29:47;;;;;;;12.02;5.38;;;;;;;;;;5093231;28;20033;-66
2022/01/07 06:32:12;;;;;;;11.50;4.90;;;;;;;;;;5093090;28;20072;-65
2022/01/07 06:34:38;;;;;;;11.20;4.85;;;;;;;;;;5092868;28;20035;-66
2022/01/07 06:37:04;;;;;;;10.32;5.10;;;;;;;;;;5092987;28;20491;-65
2022/01/07 06:39:30;;;;;;;14.30;5.32;;;;;;;;;;5072770;28;20036;-65
2022/01/07 06:41:58;;;;;;;15.60;5.88;;;;;;;;;;5074876;28;20107;-66
2022/01/07 06:44:24;;;;;;;15.02;6.38;;;;;;;;;;5092662;28;20066;-65
2022/01/07 06:46:49;;;;;;;19.02;5.97;;;;;;;;;;5092335;28;20063;-65
2022/01/07 06:49:15;;;;;;;11.73;5.32;;;;;;;;;;5092600;28;20028;-65
2022/01/07 06:51:42;;;;;;;13.48;5.88;;;;;;;;;;5093164;28;20359;-64
2022/01/07 06:54:11;;;;;;;14.45;5.18;;;;;;;;;;5092931;28;20509;-64
2022/01/07 06:56:39;;;;;;;10.52;5.03;;;;;;;;;;5092889;28;20020;-64
2022/01/07 06:59:05;;;;;;;17.92;5.63;;;;;;;;;;5092769;28;20024;-66
2022/01/07 07:01:30;;;;;;;14.77;5.80;;;;;;;;;;5092989;28;20081;-66
2022/01/07 07:03:56;;;;;;;15.68;5.38;;;;;;;;;;5092459;28;20103;-65
2022/01/07 07:06:21;;;;;;;11.50;5.95;;;;;;;;;;5092964;28;20017;-62
2022/01/07 07:08:47;;;;;;;9.73;4.57;;;;;;;;;;5092749;28;20028;-64
2022/01/07 07:11:12;;;;;;;11.00;5.18;;;;;;;;;;5098946;28;20024;-66
2022/01/07 07:13:37;;;;;;;14.73;4.00;;;;;;;;;;5081140;28;20422;-65
2022/01/07 07:16:03;;;;;;;13.27;5.05;;;;;;;;;;5076657;28;20051;-65
2022/01/07 07:18:28;;;;;;;7.32;3.70;;;;;;;;;;5091992;28;20365;-65
2022/01/07 07:20:54;;;;;;;17.30;5.28;;;;;;;;;;5092808;28;20024;-66
2022/01/07 07:23:19;;;;;;;17.40;5.60;;;;;;;;;;5092616;28;20032;-64
2022/01/07 07:25:45;;;;;;;14.52;5.18;;;;;;;;;;5092888;28;20024;-65
2022/01/07 07:28:10;;;;;;;15.43;4.78;;;;;;;;;;5092577;28;20032;-64
2022/01/07 07:30:39;;;;;;;6.53;3.78;;;;;;;;;;5092475;28;20028;-64
2022/01/07 07:38:45;;;;;;;11.68;5.35;;;;;;;;;;5011077;28;20527;-66
2022/01/07 07:41:11;;;;;;;11.02;4.97;;;;;;;;;;5010320;28;20033;-65
2022/01/07 07:43:37;;;;;;;15.98;5.95;;;;;;;;;;5010786;28;20563;-65
2022/01/07 07:46:04;;;;;;;12.10;4.60;;;;;;;;;;5010217;28;20421;-65
2022/01/07 07:48:33;;;;;;;13.98;5.15;;;;;;;;;;5010534;28;20117;-65
2022/01/07 07:50:58;;;;;;;8.93;4.13;;;;;;;;;;5010644;28;20047;-65
2022/01/07 07:53:25;;;;;;;16.85;6.55;;;;;;;;;;5010591;28;20391;-65
2022/01/07 07:55:53;;;;;;;12.38;5.53;;;;;;;;;;5010199;28;20478;-64
2022/01/07 07:58:22;;;;;;;14.68;5.82;;;;;;;;;;5012769;28;20142;-64
2022/01/07 08:00:49;;;;;;;9.38;4.88;;;;;;;;;;5013867;28;20038;-62
2022/01/07 08:03:14;;;;;;;18.80;5.43;;;;;;;;;;5013541;28;20539;-66
2022/01/07 08:05:40;;;;;;;16.35;5.55;;;;;;;;;;5013140;28;20030;-63
2022/01/07 08:08:06;;;;;;;10.73;5.30;;;;;;;;;;5013733;28;20041;-64
2022/01/07 08:10:32;;;;;;;16.23;6.00;;;;;;;;;;5013979;28;20038;-64
2022/01/07 08:18:22;;;;;;;9.45;4.13;;;;;;;;;;5095691;28;20035;-63
2022/01/07 08:20:48;;;;;;;11.27;4.80;;;;;;;;;;5095655;28;20124;-64
2022/01/07 08:23:13;;;;;;;20.92;5.82;;;;;;;;;;5095419;28;20103;-64
2022/01/07 08:25:39;;;;;;;14.52;5.43;;;;;;;;;;5095641;28;20028;-64
2022/01/07 08:28:05;;;;;;;15.90;6.25;;;;;;;;;;5095272;28;20466;-66
2022/01/07 08:30:58;;;;;;;12.77;5.47;;;;;;;;;;5095377;28;20029;-66
2022/01/07 08:36:07;;;;;;;12.57;5.28;;;;;;;;;;5095456;28;20469;-65
2022/01/07 08:38:32;;;;;;;9.77;4.40;;;;;;;;;;5095305;28;20024;-63
2022/01/07 08:40:58;;;;;;;9.88;4.43;;;;;;;;;;5095406;28;20107;-66
2022/01/07 08:43:24;;;;;;;15.43;6.10;;;;;;;;;;5095319;28;20103;-63
2022/01/07 08:45:49;;;;;;;10.45;4.80;;;;;;;;;;5094802;28;20381;-64
2022/01/07 08:48:15;;;;;;;10.77;5.47;;;;;;;;;;5095111;28;20440;-65
2022/01/07 08:50:40;;;;;;;15.45;6.03;;;;;;;;;;5077032;28;20405;-66
2022/01/07 08:53:05;;;;;;;17.58;6.13;;;;;;;;;;5095130;28;20020;-65
2022/01/07 08:55:31;;;;;;;11.68;5.13;;;;;;;;;;5095195;28;20028;-66
2022/01/07 08:57:57;;;;;;;18.08;5.95;;;;;;;;;;5094982;28;20024;-65
2022/01/07 09:00:24;;;;;;;10.63;4.25;;;;;;;;;;5094801;28;20043;-65
2022/01/07 09:02:49;;;;;;;16.05;5.47;;;;;;;;;;5094917;28;20039;-61
2022/01/07 09:05:15;;;;;;;11.45;4.63;;;;;;;;;;5094847;28;20024;-64
2022/01/07 09:07:40;;;;;;;14.50;5.38;;;;;;;;;;5094741;28;20024;-65
2022/01/07 09:10:06;;;;;;;13.07;5.05;;;;;;;;;;5094037;28;20053;-59
2022/01/07 09:12:31;;;;;;;9.50;4.05;;;;;;;;;;5094505;28;20020;-64
2022/01/07 09:14:57;;;;;;;14.30;5.05;;;;;;;;;;5094395;28;20085;-65
2022/01/07 09:17:22;;;;;;;15.07;6.05;;;;;;;;;;5094072;28;20036;-61
2022/01/07 09:19:48;;;;;;;13.45;4.47;;;;;;;;;;5094198;28;20035;-65
2022/01/07 09:22:14;;;;;;;8.98;3.38;;;;;;;;;;5094223;28;20020;-61
2022/01/07 09:24:39;;;;;;;12.25;4.97;;;;;;;;;;5094184;28;20020;-65
2022/01/07 09:27:05;;;;;;;9.65;4.35;;;;;;;;;;5093298;28;20050;-64
2022/01/07 09:29:30;;;;;;;14.80;5.72;;;;;;;;;;5093768;28;20031;-63
2022/01/07 09:31:56;;;;;;;10.95;4.35;;;;;;;;;;5094312;28;20020;-64
2022/01/07 09:34:21;;;;;;;11.10;3.95;;;;;;;;;;5094427;28;20027;-66
2022/01/07 09:36:47;;;;;;;10.57;4.55;;;;;;;;;;5094259;28;20071;-66
2022/01/07 09:39:13;;;;;;;7.32;3.53;;;;;;;;;;5094277;28;20036;-66
2022/01/07 09:41:39;;;;;;;11.85;4.90;;;;;;;;;;5094344;28;20375;-65
2022/01/07 09:44:09;;;;;;;10.00;3.95;;;;;;;;;;5093057;28;20397;-60
2022/01/07 09:46:35;;;;;;;9.35;4.03;;;;;;;;;;5094063;28;20161;-63
2022/01/07 09:49:00;;;;;;;12.82;4.97;;;;;;;;;;5094006;28;20115;-65
2022/01/07 09:51:27;;;;;;;11.52;4.82;;;;;;;;;;5093909;28;20487;-65
2022/01/07 09:53:52;;;;;;;8.85;4.35;;;;;;;;;;5093724;28;20109;-64
2022/01/07 09:56:19;;;;;;;15.45;5.03;;;;;;;;;;5093882;28;20032;-66
2022/01/07 09:58:45;;;;;;;9.70;4.22;;;;;;;;;;5093575;28;20067;-64
2022/01/07 10:01:13;;;;;;;8.30;3.55;;;;;;;;;;5093714;28;20075;-64
2022/01/07 10:03:42;;;;;;;9.38;4.20;;;;;;;;;;5093656;28;20020;-65
2022/01/07 10:06:24;;;;;;;9.65;4.72;;;;;;;;;;5093732;28;20032;-65
2022/01/07 10:09:10;;;;;;;11.70;4.30;;;;;;;;;;5093098;28;20028;-64
2022/01/07 10:11:36;;;;;;;15.07;4.68;;;;;;;;;;5093528;28;20028;-64
2022/01/07 10:14:22;;;;;;;13.80;4.35;;;;;;;;;;5093362;28;20597;-66
2022/01/07 10:16:56;;;;;;;9.90;3.95;;;;;;;;;;5084822;28;20040;-60
2022/01/07 10:19:34;;;;;;;14.40;4.80;;;;;;;;;;5091590;28;20077;-63
2022/01/07 10:22:03;;;;;;;8.13;3.58;;;;;;;;;;5082328;28;20029;-63
2022/01/07 10:24:29;;;;;;;7.18;3.78;;;;;;;;;;5084418;28;20039;-63
2022/01/07 10:27:13;;;;;;;11.13;4.47;;;;;;;;;;5079650;28;20437;-62
2022/01/07 10:29:42;;;;;;;7.05;3.78;;;;;;;;;;5078299;28;20050;-64
2022/01/07 10:32:26;;;;;;;11.35;3.33;;;;;;;;;;5089313;28;20118;-63
2022/01/07 10:35:14;;;;;;;12.95;3.85;;;;;;;;;;5085873;28;20024;-61
2022/01/07 10:37:55;;;;;;;13.73;4.47;;;;;;;;;;5072770;28;20454;-62
2022/01/07 10:40:40;;;;;;;10.38;4.22;;;;;;;;;;5092534;28;20027;-64
2022/01/07 10:43:15;;;;;;;10.35;3.88;;;;;;;;;;5086258;28;20398;-62
2022/01/07 10:45:47;;;;;;;10.55;4.00;;;;;;;;;;5090504;28;20024;-61
2022/01/07 10:48:14;;;;;;;18.85;4.85;;;;;;;;;;5084488;28;20063;-62
2022/01/07 10:50:43;;;;;;;11.88;3.80;;;;;;;;;;5092550;28;20428;-64
2022/01/07 10:53:20;;;;;;;13.02;4.43;;;;;;;;;;5067772;28;20039;-64
2022/01/07 10:56:03;;;;;;;7.53;3.90;;;;;;;;;;5084302;28;20039;-63
2022/01/07 10:58:39;;;;;;;8.40;3.80;;;;;;;;;;5091977;28;20028;-65
2022/01/07 11:01:05;;;;;;;11.35;4.13;;;;;;;;;;5076479;28;20036;-62
2022/01/07 11:03:33;;;;;;;12.93;5.40;;;;;;;;;;5076375;28;20436;-65
2022/01/07 11:06:01;;;;;;;10.05;4.40;;;;;;;;;;5076478;28;20453;-63
2022/01/07 11:08:26;;;;;;;13.02;4.80;;;;;;;;;;5076288;28;20429;-62
2022/01/07 11:10:52;;;;;;;13.10;4.80;;;;;;;;;;5080419;28;20039;-64
2022/01/07 11:13:18;;;;;;;9.85;3.72;;;;;;;;;;5087028;28;20074;-64
2022/01/07 11:15:43;;;;;;;10.85;4.20;;;;;;;;;;5086034;28;20040;-65
2022/01/07 11:18:08;;;;;;;8.43;3.55;;;;;;;;;;5073252;28;20382;-65
2022/01/07 11:20:35;;;;;;;9.32;3.88;;;;;;;;;;5088861;28;20036;-64
2022/01/07 11:23:00;;;;;;;9.45;4.05;;;;;;;;;;5088475;28;20035;-63
2022/01/07 11:25:32;;;;;;;18.33;4.75;;;;;;;;;;5085407;28;20024;-64
2022/01/07 11:27:59;;;;;;;12.05;3.88;;;;;;;;;;5089018;28;20033;-65
2022/01/07 11:30:28;;;;;;;13.10;4.60;;;;;;;;;;5074404;28;20037;-64
2022/01/07 11:32:55;;;;;;;11.48;4.40;;;;;;;;;;5084206;28;20035;-64
2022/01/07 11:35:21;;;;;;;17.42;4.00;;;;;;;;;;5081256;28;20040;-66
2022/01/07 11:38:01;;;;;;;10.45;4.90;;;;;;;;;;5083662;28;20024;-65
2022/01/07 11:40:31;;;;;;;14.70;3.83;;;;;;;;;;5096268;28;20099;-64
2022/01/07 11:43:01;;;;;;;11.27;4.20;;;;;;;;;;5083981;28;20036;-63
2022/01/07 11:45:33;;;;;;;11.80;4.25;;;;;;;;;;5096353;28;20093;-62
2022/01/07 11:48:16;;;;;;;9.40;4.57;;;;;;;;;;5096110;28;20043;-63
2022/01/07 11:51:07;;;;;;;7.63;3.72;;;;;;;;;;5092223;28;20066;-63
2022/01/07 11:53:35;;;;;;;14.23;4.93;;;;;;;;;;5089331;28;20044;-65
2022/01/07 11:56:03;;;;;;;12.60;4.35;;;;;;;;;;5084963;28;20032;-64
2022/01/07 11:58:55;;;;;;;7.43;3.15;;;;;;;;;;5086834;28;20032;-64
2022/01/07 12:01:23;;;;;;;9.38;4.00;;;;;;;;;;5089029;28;20504;-64
2022/01/07 12:03:49;;;;;;;11.95;4.40;;;;;;;;;;5095556;28;20043;-64
2022/01/07 12:06:38;;;;;;;11.63;4.15;;;;;;;;;;5095703;28;20028;-63
2022/01/07 12:09:10;;;;;;;11.38;3.65;;;;;;;;;;5084786;28;20020;-64
2022/01/07 12:11:38;;;;;;;10.32;3.88;;;;;;;;;;5106151;28;20535;-63
2022/01/07 12:14:10;;;;;;;13.30;4.55;;;;;;;;;;5096440;28;20032;-64
2022/01/07 12:16:36;;;;;;;14.68;4.80;;;;;;;;;;5085906;28;20494;-65
2022/01/07 12:19:28;;;;;;;12.35;5.32;;;;;;;;;;5081582;28;20102;-63
2022/01/07 12:21:56;;;;;;;15.75;4.97;;;;;;;;;;5052825;28;20037;-65
2022/01/07 12:24:28;;;;;;;11.02;3.80;;;;;;;;;;5052932;28;20098;-64
2022/01/07 12:27:03;;;;;;;17.05;5.68;;;;;;;;;;5034097;28;20049;-64
2022/01/07 12:29:33;;;;;;;13.48;4.97;;;;;;;;;;5052664;28;20037;-62
2022/01/07 12:31:59;;;;;;;18.17;6.03;;;;;;;;;;5052774;28;20107;-63
2022/01/07 12:34:27;;;;;;;9.48;3.95;;;;;;;;;;5052938;28;20135;-63
2022/01/07 12:37:05;;;;;;;15.52;6.65;;;;;;;;;;5052461;28;20056;-64
2022/01/07 12:39:35;;;;;;;20.25;6.57;;;;;;;;;;5052723;28;20124;-63
2022/01/07 12:42:03;;;;;;;;;;;;;;;;;;5051808;28;20193;-64
2022/01/07 12:44:34;;;;;;;17.08;6.30;;;;;;;;;;5051609;28;19934;-64
2022/01/07 12:46:59;;;;;;;15.52;6.78;;;;;;;;;;5036027;28;20037;-63
2022/01/07 12:49:46;;;;;;;12.65;4.85;;;;;;;;;;5034640;28;20558;-60
2022/01/07 12:52:32;;;;;;;11.50;4.57;;;;;;;;;;5051242;28;20095;-58
2022/01/07 12:55:07;;;;;;;10.82;4.45;;;;;;;;;;5046978;28;20040;-59
2022/01/07 12:57:37;;;;;;;14.15;5.70;;;;;;;;;;5032719;28;20383;-59
2022/01/07 13:00:19;;;;;;;12.27;5.57;;;;;;;;;;5074070;28;20094;-59
2022/01/07 13:03:12;;;;;;;19.45;7.75;;;;;;;;;;5092385;28;20027;-58
2022/01/07 13:05:42;;;;;;;14.35;5.28;;;;;;;;;;5092518;28;20119;-59
2022/01/07 13:08:09;;;;;;;12.48;5.47;;;;;;;;;;5094815;28;20470;-59
2022/01/07 13:10:37;;;;;;;5.68;3.67;;;;;;;;;;5094523;28;20039;-59
2022/01/07 13:13:07;;;;;;;12.63;4.97;;;;;;;;;;5094789;28;20066;-58
2022/01/07 13:15:45;;;;;;;25.00;5.43;;;;;;;;;;5094853;28;20038;-62
2022/01/07 13:18:27;;;;;;;11.95;4.72;;;;;;;;;;5082359;28;20032;-66
2022/01/07 13:21:13;;;;;;;12.30;4.68;;;;;;;;;;5088765;28;20028;-64
2022/01/07 13:23:42;;;;;;;11.25;4.72;;;;;;;;;;5075397;28;20025;-65
2022/01/07 13:26:09;;;;;;;10.50;4.72;;;;;;;;;;5065848;28;20086;-64
2022/01/07 13:28:40;;;;;;;10.38;4.53;;;;;;;;;;5094048;28;20031;-64
2022/01/07 13:31:08;;;;;;;13.65;4.97;;;;;;;;;;5091734;28;20028;-63
2022/01/07 13:33:35;;;;;;;11.95;4.68;;;;;;;;;;5094315;28;20023;-64
2022/01/07 13:36:05;;;;;;;11.75;4.38;;;;;;;;;;5088430;28;20044;-64
2022/01/07 13:38:31;;;;;;;11.50;4.40;;;;;;;;;;5093966;28;20030;-62
2022/01/07 13:41:13;;;;;;;16.90;5.63;;;;;;;;;;5093997;28;20038;-64
2022/01/07 13:43:45;;;;;;;11.13;5.18;;;;;;;;;;5077625;28;20478;-65
2022/01/07 13:46:28;;;;;;;10.65;5.22;;;;;;;;;;5081391;28;20024;-64
2022/01/07 13:48:55;;;;;;;11.57;6.05;;;;;;;;;;5082827;28;20040;-66
2022/01/07 13:51:23;;;;;;;9.68;4.82;;;;;;;;;;5080845;28;20033;-65
2022/01/07 13:54:14;;;;;;;12.90;5.25;;;;;;;;;;5091111;28;20036;-65
2022/01/07 13:56:45;;;;;;;12.07;4.78;;;;;;;;;;5093464;28;20115;-64
2022/01/07 13:59:12;;;;;;;14.20;5.57;;;;;;;;;;5093538;28;20040;-64
2022/01/07 14:01:59;;;;;;;13.77;4.72;;;;;;;;;;5093083;28;20174;-63
2022/01/07 14:04:40;;;;;;;13.18;5.68;;;;;;;;;;5093132;28;20070;-65
2022/01/07 14:07:22;;;;;;;13.70;4.97;;;;;;;;;;5093853;28;20028;-65
2022/01/07 14:10:12;;;;;;;14.75;5.30;;;;;;;;;;5087826;28;20028;-63
2022/01/07 14:12:44;;;;;;;15.13;4.70;;;;;;;;;;5077909;28;20059;-65
2022/01/07 14:15:11;;;;;;;10.55;4.70;;;;;;;;;;5093302;28;20503;-65
2022/01/07 14:17:39;;;;;;;10.88;4.57;;;;;;;;;;5079797;28;20051;-60
2022/01/07 14:20:07;;;;;;;16.35;5.13;;;;;;;;;;5091418;28;20032;-64
2022/01/07 14:22:39;;;;;;;13.57;4.97;;;;;;;;;;5085026;28;20027;-62
2022/01/07 14:25:05;;;;;;;11.48;4.90;;;;;;;;;;5092967;28;20051;-64
2022/01/07 14:27:36;;;;;;;17.30;5.75;;;;;;;;;;5093178;28;20081;-65
2022/01/07 14:30:07;;;;;;;13.68;5.97;;;;;;;;;;5093241;28;20027;-59
2022/01/07 14:32:33;;;;;;;10.93;5.35;;;;;;;;;;5092801;28;20081;-60
2022/01/07 14:35:00;;;;;;;7.88;4.55;;;;;;;;;;5093209;28;20027;-60
2022/01/07 14:37:29;;;;;;;12.32;5.60;;;;;;;;;;5087792;28;20052;-60
2022/01/07 14:39:56;;;;;;;12.85;4.95;;;;;;;;;;5079957;28;20089;-66
2022/01/07 14:42:22;;;;;;;8.57;4.10;;;;;;;;;;5061388;28;20122;-61
2022/01/07 14:44:47;;;;;;;11.23;5.30;;;;;;;;;;5093115;28;20374;-59
2022/01/07 14:47:13;;;;;;;16.83;6.03;;;;;;;;;;5092657;28;20028;-60
2022/01/07 14:49:40;;;;;;;10.57;5.25;;;;;;;;;;5092874;28;20074;-56
2022/01/07 14:52:06;;;;;;;12.30;5.65;;;;;;;;;;5092872;28;20035;-60
2022/01/07 14:54:31;;;;;;;10.30;5.53;;;;;;;;;;5092694;28;20378;-58